Flight Track Log - Related Links

Times and Time Zones

All times are in EDT time to prevent confusion due to time zone crossing. See the ASQ6115 flight status page for this flight to view local times or setup timezone preferences in your user account.

Time Position Orientation Groundspeed Altitude Reporting Facility
EDT Latitude Longitude Course Direction KTS MPH feet Rate Location/Type
Mon 08:54:35 AM 29.9575 -95.3442 32° Northeast 161 185 700  Level Houston Center
Mon 08:55:17 AM 29.9347 -95.3686 223° Southwest 220 253 1,900 1,677 Climbing Houston Center
Mon 08:56:08 AM 29.9675 -95.3886 332° Northwest 242 278 3,300 1,770 Climbing Houston Center
Mon 08:56:18 AM 29.9861 -95.3817 18° North 225 259 3,700 1,355 Climbing Houston Center
Mon 08:57:10 AM 30.0303 -95.3631 20° North 238 274 4,700 1,475 Climbing Houston Center
Mon 08:57:19 AM 30.0525 -95.3494 28° Northeast 277 319 5,200 2,419 Climbing Houston Center
Mon 08:58:00 AM 30.2716 -94.9783 35° Northeast  Level Estimated
Mon 08:58:12 AM 30.1092 -95.3081 32° Northeast 272 313 7,200  Level Houston Center
Mon 08:59:00 AM 30.3432 -94.8871 32° Northeast  Level Estimated
Mon 08:59:13 AM 30.1722 -95.2569 35° Northeast 277 319 9,100  Level Houston Center
Mon 09:00:15 AM 30.2328 -95.1983 40° Northeast 284 327 10,500 1,024 Climbing Houston Center
Mon 09:01:16 AM 30.3025 -95.1336 39° Northeast 317 365 11,200 780 Climbing Houston Center
Mon 09:02:18 AM 30.3767 -95.0606 40° Northeast 347 399 12,100 1,073 Climbing Houston Center
Mon 09:03:19 AM 30.4567 -94.9836 40° Northeast 360 414 13,400 1,122 Climbing Houston Center
Mon 09:04:21 AM 30.5339 -94.9100 39° Northeast 362 417 14,400 878 Climbing Houston Center
Mon 09:05:22 AM 30.6175 -94.8408 35° Northeast 369 425 15,200 829 Climbing Houston Center
Mon 09:06:24 AM 30.7042 -94.7744 33° Northeast 375 432 16,100 823 Climbing Houston Center
Mon 09:07:26 AM 30.8089 -94.6936 34° Northeast 379 436 16,900 780 Climbing Houston Center
Mon 09:08:27 AM 30.8978 -94.6247 34° Northeast 383 441 17,700 780 Climbing Houston Center
Mon 09:09:29 AM 30.9864 -94.5550 34° Northeast 386 444 18,500 634 Climbing Houston Center
Mon 09:10:30 AM 31.0761 -94.4858 33° Northeast 388 447 19,000 585 Climbing Houston Center
Mon 09:11:32 AM 31.1672 -94.4150 34° Northeast 395 455 19,700 726 Climbing Houston Center
Mon 09:12:34 AM 31.2606 -94.3433 33° Northeast 402 463 20,500 829 Climbing Houston Center
Mon 09:13:35 AM 31.3719 -94.2564 34° Northeast 402 463 21,400 878 Climbing Houston Center
Mon 09:14:37 AM 31.4569 -94.1719 40° Northeast 405 466 22,300 968 Climbing Houston Center
Mon 09:15:39 AM 31.5281 -94.0711 50° Northeast 402 463 23,400 1,024 Climbing Houston Center
Mon 09:16:40 AM 31.5994 -93.9719 50° Northeast 399 459 24,400 1,024 Climbing Houston Center
Mon 09:17:42 AM 31.6694 -93.8736 50° Northeast 395 455 25,500 1,016 Climbing Houston Center
Mon 09:18:44 AM 31.7389 -93.7758 50° Northeast 390 449 26,500 1,024 Climbing Houston Center
Mon 09:19:45 AM 31.8075 -93.6794 50° Northeast 389 448 27,600 1,122 Climbing Houston Center
Mon 09:20:47 AM 31.8894 -93.5631 50° Northeast 386 444 28,800 1,065 Climbing Houston Center
Mon 09:21:49 AM 31.9569 -93.4669 50° Northeast 383 441 29,800 927 Climbing Houston Center
Mon 09:22:50 AM 32.0258 -93.3689 50° Northeast 385 443 30,700 935 Climbing Houston Center
Mon 09:24:23 AM 32.1350 -93.2133 50° Northeast 385 443 32,200 980 Climbing Fort Worth Center
Mon 09:25:23 AM 32.2064 -93.1047 52° Northeast 392 451 33,200 1,000 Climbing Fort Worth Center
Mon 09:26:23 AM 32.2764 -93.0128 48° Northeast 387 445 34,200 900 Climbing Fort Worth Center
Mon 09:27:23 AM 32.3439 -92.9161 50° Northeast 387 445 35,000 400 Climbing Fort Worth Center
Mon 09:28:23 AM 32.4169 -92.8017 53° Northeast 397 457 35,000  Level Fort Worth Center
Mon 09:29:23 AM 32.4944 -92.6919 50° Northeast 416 479 35,000  Level Fort Worth Center
Mon 09:30:23 AM 32.5733 -92.5744 51° Northeast 439 505 35,000  Level Fort Worth Center
Mon 09:31:23 AM 32.6564 -92.4564 50° Northeast 444 511 35,000  Level Fort Worth Center
Mon 09:32:23 AM 32.7394 -92.3383 50° Northeast 449 517 35,000  Level Fort Worth Center
Mon 09:34:27 AM 32.8914 -92.1114 51° Northeast 449 517 35,000  Level Memphis Center
Mon 09:35:27 AM 32.9725 -91.9842 53° Northeast 442 509 35,000  Level Memphis Center
Mon 09:36:27 AM 33.0533 -91.8692 50° Northeast 437 503 35,000  Level Memphis Center
Mon 09:37:27 AM 33.1339 -91.7514 51° Northeast 447 514 35,000  Level Memphis Center
Mon 09:38:27 AM 33.2125 -91.6336 51° Northeast 447 514 35,000  Level Memphis Center
Mon 09:39:27 AM 33.2908 -91.5153 52° Northeast 447 514 35,000  Level Memphis Center
Mon 09:40:27 AM 33.3711 -91.3969 51° Northeast 447 514 35,000  Level Memphis Center
Mon 09:41:27 AM 33.4514 -91.2733 52° Northeast 452 520 35,000  Level Memphis Center
Mon 09:42:27 AM 33.5317 -91.1522 51° Northeast 463 533 35,000  Level Memphis Center
Mon 09:43:27 AM 33.6136 -91.0306 51° Northeast 463 533 35,000  Level Memphis Center
Mon 09:44:27 AM 33.6936 -90.9064 52° Northeast 463 533 35,000  Level Memphis Center
Mon 09:45:27 AM 33.7756 -90.7819 52° Northeast 463 533 35,000  Level Memphis Center
Mon 09:46:27 AM 33.8531 -90.6650 51° Northeast 469 540 35,000  Level Memphis Center
Mon 09:47:27 AM 33.9242 -90.5550 52° Northeast 463 533 35,000  Level Memphis Center
Mon 09:48:27 AM 34.0036 -90.4325 52° Northeast 469 540 35,000  Level Memphis Center
Mon 09:49:27 AM 34.0831 -90.3094 52° Northeast 461 531 35,000  Level Memphis Center
Mon 09:50:27 AM 34.1600 -90.1864 53° Northeast 461 531 35,000  Level Memphis Center
Mon 09:51:27 AM 34.2392 -90.0658 52° Northeast 461 531 35,000  Level Memphis Center
Mon 09:52:27 AM 34.3203 -89.9372 53° Northeast 461 531 35,000  Level Memphis Center
Mon 09:53:27 AM 34.3969 -89.8133 53° Northeast 461 531 35,000  Level Memphis Center
Mon 09:54:27 AM 34.4756 -89.6869 53° Northeast 466 536 35,000  Level Memphis Center
Mon 09:55:27 AM 34.5542 -89.5628 52° Northeast 466 536 35,000  Level Memphis Center
Mon 09:56:27 AM 34.6347 -89.4358 52° Northeast 466 536 35,000 -400 Level Memphis Center
Mon 09:57:27 AM 34.7150 -89.3111 52° Northeast 466 536 34,200 -850 Descending Memphis Center
Mon 09:58:27 AM 34.7931 -89.1864 53° Northeast 466 536 33,300 -950 Descending Memphis Center
Mon 09:59:27 AM 34.8794 -89.0483 53° Northeast 466 536 32,300 -950 Descending Memphis Center
Mon 10:00:27 AM 34.9572 -88.9256 52° Northeast 466 536 31,400 -950 Descending Memphis Center
Mon 10:01:27 AM 35.0331 -88.8000 54° Northeast 466 536 30,400 -950 Descending Memphis Center
Mon 10:02:27 AM 35.1128 -88.6742 52° Northeast 466 536 29,500 -900 Descending Memphis Center
Mon 10:03:27 AM 35.1922 -88.5481 52° Northeast 466 536 28,600 -900 Descending Memphis Center
Mon 10:04:27 AM 35.2611 -88.4117 58° Northeast 466 536 27,700 -950 Descending Memphis Center
Mon 10:05:27 AM 35.3128 -88.2603 67° East 466 536 26,700 -950 Descending Memphis Center
Mon 10:06:27 AM 35.3622 -88.1039 69° East 477 549 25,800 -950 Descending Memphis Center
Mon 10:07:27 AM 35.4433 -87.9767 52° Northeast 476 548 24,800 -950 Descending Memphis Center
Mon 10:08:27 AM 35.5228 -87.8750 46° Northeast 459 528 23,900 -1,200 Descending Memphis Center
Mon 10:09:27 AM 35.6164 -87.7675 43° Northeast 459 528 22,400 -1,350 Descending Memphis Center
Mon 10:10:27 AM 35.7039 -87.6572 46° Northeast 449 517 21,200 -1,950 Descending Memphis Center
Mon 10:11:27 AM 35.7956 -87.5622 40° Northeast 443 510 18,500 -2,700 Descending Memphis Center
Mon 10:12:27 AM 35.8917 -87.4872 32° Northeast 417 480 15,800 -2,750 Descending Memphis Center
Mon 10:13:27 AM 35.9644 -87.3822 49° Northeast 395 455 13,000 -2,650 Descending Memphis Center
Mon 10:14:27 AM 36.0328 -87.2794 51° Northeast 388 447 10,500 -1,550 Descending Memphis Center
Mon 10:15:27 AM 36.1031 -87.1767 50° Northeast 377 434 9,900 -850 Descending Memphis Center
Mon 10:16:27 AM 36.1533 -87.1003 51° Northeast 320 368 8,800 -1,500 Descending Memphis Center
Mon 10:17:27 AM 36.1992 -87.0239 53° Northeast 284 327 6,900 -1,800 Descending Memphis Center
Mon 10:18:27 AM 36.2175 -86.9303 76° East 265 305 5,200 -1,450 Descending Memphis Center
Mon 10:19:27 AM 36.2317 -86.8397 79° East 259 298 4,000 -650 Descending Memphis Center
Mon 10:20:27 AM 36.2419 -86.7647 80° East 237 273 3,900 -500 Descending Memphis Center
Mon 10:21:27 AM 36.2508 -86.7050 80° East 197 227 3,000 -800 Descending Memphis Center
Mon 10:22:27 AM 36.2181 -86.6578 131° Southeast 160 184 2,300 -800 Descending Memphis Center
Mon 10:23:27 AM 36.1744 -86.6647 187° South 138 159 1,400 -850 Descending Memphis Center
Mon 10:24:27 AM 36.1372 -86.6767 195° South 131 151 600 -400 Descending Memphis Center
Mon 10:25:27 AM 36.1039 -86.6731 175° South 131 151 600  Level Memphis Center

Login

Don't have an account? Register now (free) for customized features, flight alerts, and more!